createdAt,value
2017-10-29T00:00:46.158Z,100.0
2017-10-29T00:01:47.646Z,100.0
2017-10-29T00:02:49.351Z,100.0
2017-10-29T00:03:50.857Z,100.0
2017-10-29T00:04:52.545Z,100.0
2017-10-29T00:05:54.092Z,100.0
2017-10-29T00:06:55.745Z,100.0
2017-10-29T00:07:57.280Z,100.0
2017-10-29T00:08:58.922Z,100.0
2017-10-29T00:10:00.409Z,100.0
2017-10-29T00:11:02.157Z,100.0
2017-10-29T00:12:03.692Z,100.0
2017-10-29T00:13:05.320Z,100.0
2017-10-29T00:14:07.037Z,100.0
2017-10-29T00:15:08.767Z,100.0
2017-10-29T00:16:10.248Z,100.0
2017-10-29T00:17:11.767Z,100.0
2017-10-29T00:18:13.481Z,100.0
2017-10-29T00:19:15.036Z,100.0
2017-10-29T00:20:16.714Z,100.0
2017-10-29T00:21:18.290Z,100.0
2017-10-29T00:22:19.965Z,100.0
2017-10-29T00:23:21.507Z,100.0
2017-10-29T00:24:23.297Z,100.0
2017-10-29T00:25:24.837Z,100.0
2017-10-29T00:26:27.566Z,100.0
2017-10-29T00:27:29.084Z,100.0
2017-10-29T00:28:31.729Z,100.0
2017-10-29T00:29:33.279Z,100.0
2017-10-29T00:30:34.942Z,100.0
2017-10-29T00:31:36.456Z,100.0
2017-10-29T00:32:38.089Z,100.0
2017-10-29T00:33:39.640Z,100.0
2017-10-29T00:34:41.301Z,100.0
2017-10-29T00:35:42.835Z,100.0
2017-10-29T00:36:44.484Z,100.0
2017-10-29T00:37:46.008Z,100.0
2017-10-29T00:38:47.597Z,100.0
2017-10-29T00:39:49.264Z,100.0
2017-10-29T00:40:50.746Z,100.0
2017-10-29T00:41:52.392Z,100.0
2017-10-29T00:42:53.905Z,100.0
2017-10-29T00:43:55.601Z,100.0
2017-10-29T00:44:57.168Z,100.0
2017-10-29T00:45:58.845Z,100.0
2017-10-29T00:47:00.522Z,100.0
2017-10-29T00:48:02.184Z,100.0
2017-10-29T00:49:03.781Z,100.0
2017-10-29T00:50:05.474Z,100.0
2017-10-29T00:51:07.070Z,100.0
2017-10-29T00:52:08.785Z,100.0
2017-10-29T00:53:10.345Z,100.0
2017-10-29T00:54:12.083Z,100.0
2017-10-29T00:55:13.624Z,100.0
2017-10-29T00:56:15.275Z,100.0
2017-10-29T00:57:16.785Z,100.0
2017-10-29T00:58:18.375Z,100.0
2017-10-29T00:59:19.894Z,100.0
2017-10-29T01:00:21.600Z,100.0
2017-10-29T01:01:23.110Z,100.0
2017-10-29T01:02:24.771Z,100.0
2017-10-29T01:03:26.284Z,100.0
2017-10-29T01:04:28.041Z,100.0
2017-10-29T01:05:29.553Z,100.0
2017-10-29T01:06:31.165Z,100.0
2017-10-29T01:07:32.746Z,100.0
2017-10-29T01:08:34.529Z,100.0
2017-10-29T01:09:36.038Z,100.0
2017-10-29T01:10:38.162Z,100.0
2017-10-29T01:11:39.669Z,100.0
2017-10-29T01:12:41.232Z,99.4
2017-10-29T01:13:42.820Z,100.0
2017-10-29T01:14:44.512Z,100.0
2017-10-29T01:15:46.088Z,100.0
2017-10-29T01:16:47.743Z,100.0
2017-10-29T01:17:49.218Z,100.0
2017-10-29T01:18:50.872Z,100.0
2017-10-29T01:19:52.471Z,100.0
2017-10-29T01:20:54.115Z,100.0
2017-10-29T01:21:55.648Z,100.0
2017-10-29T01:22:57.223Z,100.0
2017-10-29T01:23:58.681Z,100.0
2017-10-29T01:25:00.347Z,100.0
2017-10-29T01:26:01.895Z,100.0
2017-10-29T01:27:03.573Z,100.0
2017-10-29T01:28:05.133Z,100.0
2017-10-29T01:29:06.711Z,100.0
2017-10-29T01:30:08.286Z,100.0
2017-10-29T01:31:09.906Z,100.0
2017-10-29T01:32:11.371Z,100.0
2017-10-29T01:33:13.003Z,100.0
2017-10-29T01:34:14.520Z,100.0
2017-10-29T01:35:16.237Z,100.0
2017-10-29T01:36:17.763Z,100.0
2017-10-29T01:37:19.301Z,100.0
2017-10-29T01:38:20.745Z,100.0
2017-10-29T01:39:22.318Z,100.0
2017-10-29T01:40:23.852Z,100.0
2017-10-29T01:41:25.528Z,100.0
2017-10-29T01:42:27.027Z,100.0
2017-10-29T01:43:28.689Z,100.0
2017-10-29T01:44:30.199Z,100.0
2017-10-29T01:45:31.758Z,100.0
2017-10-29T01:46:33.390Z,100.0
2017-10-29T01:47:34.887Z,100.0
2017-10-29T01:48:36.494Z,100.0
2017-10-29T01:49:38.018Z,100.0
2017-10-29T01:50:39.736Z,100.0
2017-10-29T01:51:41.328Z,100.0
2017-10-29T01:52:42.816Z,100.0
2017-10-29T01:53:44.397Z,100.0
2017-10-29T01:54:46.025Z,100.0
2017-10-29T01:55:47.540Z,100.0
2017-10-29T01:56:49.227Z,100.0
2017-10-29T01:57:50.698Z,100.0
2017-10-29T01:58:52.441Z,100.0
2017-10-29T01:59:53.955Z,100.0
2017-10-29T02:00:55.597Z,100.0
2017-10-29T02:01:57.134Z,100.0
2017-10-29T02:02:58.748Z,100.0
2017-10-29T02:04:00.318Z,100.0
2017-10-29T02:05:03.104Z,100.0
2017-10-29T02:06:04.638Z,100.0
2017-10-29T02:07:06.277Z,100.0
2017-10-29T02:08:07.836Z,100.0
2017-10-29T02:09:09.425Z,100.0
2017-10-29T02:10:10.941Z,100.0
2017-10-29T02:11:12.584Z,100.0
2017-10-29T02:12:14.094Z,100.0
2017-10-29T02:13:15.695Z,100.0
2017-10-29T02:14:17.208Z,100.0
2017-10-29T02:15:18.775Z,100.0
2017-10-29T02:16:20.267Z,100.0
2017-10-29T02:17:21.852Z,100.0
2017-10-29T02:18:23.376Z,100.0
2017-10-29T02:19:25.031Z,100.0
2017-10-29T02:20:26.593Z,100.0
2017-10-29T02:21:28.209Z,100.0
2017-10-29T02:22:29.726Z,100.0
2017-10-29T02:23:31.329Z,100.0
2017-10-29T02:24:32.902Z,100.0
2017-10-29T02:25:34.525Z,100.0
2017-10-29T02:26:36.030Z,100.0
2017-10-29T02:27:37.638Z,100.0
2017-10-29T02:28:39.154Z,100.0
2017-10-29T02:29:40.808Z,100.0
2017-10-29T02:30:42.349Z,100.0
2017-10-29T02:31:44.010Z,100.0
2017-10-29T02:32:45.516Z,100.0
2017-10-29T02:33:49.120Z,100.0
2017-10-29T02:34:50.655Z,100.0
2017-10-29T02:35:52.315Z,100.0
2017-10-29T02:36:53.871Z,100.0
2017-10-29T02:37:55.514Z,100.0
2017-10-29T02:38:57.049Z,100.0
2017-10-29T02:39:58.737Z,100.0
2017-10-29T02:41:00.292Z,100.0
2017-10-29T02:42:01.975Z,100.0
2017-10-29T02:43:03.478Z,100.0
2017-10-29T02:44:05.162Z,100.0
2017-10-29T02:45:07.077Z,100.0
2017-10-29T02:46:08.792Z,100.0
2017-10-29T02:47:10.331Z,100.0
2017-10-29T02:48:11.989Z,100.0
2017-10-29T02:49:13.465Z,100.0
2017-10-29T02:50:15.155Z,100.0
2017-10-29T02:51:16.629Z,100.0
2017-10-29T02:52:18.639Z,100.0
2017-10-29T02:53:20.151Z,100.0
2017-10-29T02:54:21.823Z,100.0
2017-10-29T02:55:23.293Z,100.0
2017-10-29T02:56:25.024Z,100.0
2017-10-29T02:57:26.563Z,100.0
2017-10-29T02:58:28.152Z,100.0
2017-10-29T02:59:29.649Z,100.0
2017-10-29T03:00:31.273Z,100.0
2017-10-29T03:01:32.864Z,100.0
2017-10-29T03:02:34.582Z,100.0
2017-10-29T03:03:36.133Z,100.0
2017-10-29T03:04:37.777Z,100.0
2017-10-29T03:05:39.327Z,100.0
2017-10-29T03:06:40.954Z,100.0
2017-10-29T03:07:42.445Z,100.0
2017-10-29T03:08:43.951Z,100.0
2017-10-29T03:09:45.657Z,100.0
2017-10-29T03:10:47.215Z,100.0
2017-10-29T03:11:48.893Z,100.0
2017-10-29T03:12:50.449Z,100.0
2017-10-29T03:13:54.062Z,100.0
2017-10-29T03:14:55.596Z,100.0
2017-10-29T03:16:03.133Z,100.0
2017-10-29T03:17:04.711Z,100.0
2017-10-29T03:18:06.378Z,100.0
2017-10-29T03:19:07.939Z,100.0
2017-10-29T03:20:09.618Z,100.0
2017-10-29T03:21:11.148Z,100.0
2017-10-29T03:22:12.790Z,100.0
2017-10-29T03:23:14.269Z,100.0
2017-10-29T03:24:15.969Z,100.0
2017-10-29T03:25:17.457Z,100.0
2017-10-29T03:26:19.170Z,100.0
2017-10-29T03:27:20.666Z,100.0
2017-10-29T03:28:22.269Z,100.0
2017-10-29T03:29:23.845Z,100.0
2017-10-29T03:30:25.563Z,100.0
2017-10-29T03:31:27.097Z,100.0
2017-10-29T03:32:28.730Z,100.0
2017-10-29T03:33:30.218Z,100.0
2017-10-29T03:34:31.823Z,100.0
2017-10-29T03:35:33.394Z,100.0
2017-10-29T03:36:35.162Z,100.0
2017-10-29T03:37:36.665Z,100.0
2017-10-29T03:38:38.287Z,100.0
2017-10-29T03:39:39.815Z,100.0
2017-10-29T03:40:41.473Z,100.0
2017-10-29T03:41:42.947Z,100.0
2017-10-29T03:42:44.588Z,100.0
2017-10-29T03:43:46.097Z,100.0
2017-10-29T03:44:47.723Z,100.0
2017-10-29T03:45:49.248Z,100.0
2017-10-29T03:46:50.899Z,100.0
2017-10-29T03:47:52.374Z,100.0
2017-10-29T03:48:54.033Z,100.0
2017-10-29T03:49:55.575Z,100.0
2017-10-29T03:50:57.200Z,100.0
2017-10-29T03:51:58.700Z,100.0
2017-10-29T03:53:00.443Z,100.0
2017-10-29T03:54:02.027Z,100.0
2017-10-29T03:55:03.913Z,100.0
2017-10-29T03:56:05.520Z,100.0
2017-10-29T03:57:07.185Z,100.0
2017-10-29T03:58:08.720Z,100.0
2017-10-29T03:59:10.325Z,100.0
2017-10-29T04:00:11.889Z,100.0
2017-10-29T04:01:13.515Z,100.0
2017-10-29T04:02:15.027Z,100.0
2017-10-29T04:03:16.626Z,100.0
2017-10-29T04:04:18.173Z,100.0
2017-10-29T04:05:19.798Z,100.0
2017-10-29T04:06:21.323Z,100.0
2017-10-29T04:07:23.016Z,100.0
2017-10-29T04:08:24.565Z,100.0
2017-10-29T04:09:26.205Z,100.0
2017-10-29T04:10:27.667Z,100.0
2017-10-29T04:11:29.382Z,100.0
2017-10-29T04:12:30.876Z,100.0
2017-10-29T04:13:32.594Z,100.0
2017-10-29T04:14:34.180Z,100.0
2017-10-29T04:15:35.852Z,100.0
2017-10-29T04:16:37.347Z,100.0
2017-10-29T04:17:39.064Z,100.0
2017-10-29T04:18:40.577Z,100.0
2017-10-29T04:19:42.260Z,100.0
2017-10-29T04:20:43.814Z,100.0
2017-10-29T04:21:45.404Z,100.0
2017-10-29T04:22:46.921Z,100.0
2017-10-29T04:23:48.431Z,100.0
2017-10-29T04:24:50.074Z,100.0
2017-10-29T04:25:51.594Z,100.0
2017-10-29T04:26:53.286Z,100.0
2017-10-29T04:27:54.861Z,100.0
2017-10-29T04:28:56.559Z,100.0
2017-10-29T04:29:58.124Z,100.0
2017-10-29T04:30:59.629Z,100.0
2017-10-29T04:32:01.226Z,100.0
2017-10-29T04:33:02.810Z,100.0
2017-10-29T04:34:05.459Z,100.0
2017-10-29T04:35:06.962Z,100.0
2017-10-29T04:36:08.561Z,100.0
2017-10-29T04:37:10.083Z,100.0
2017-10-29T04:38:11.825Z,100.0
2017-10-29T04:39:13.310Z,100.0
2017-10-29T04:40:14.966Z,100.0
2017-10-29T04:41:16.471Z,100.0
2017-10-29T04:42:18.186Z,100.0
2017-10-29T04:43:19.715Z,100.0
2017-10-29T04:44:21.393Z,100.0
2017-10-29T04:45:22.928Z,100.0
2017-10-29T04:46:24.602Z,100.0
2017-10-29T04:47:26.188Z,100.0
2017-10-29T04:48:27.749Z,100.0
2017-10-29T04:49:29.233Z,100.0
2017-10-29T04:50:30.827Z,100.0
2017-10-29T04:51:32.325Z,100.0
2017-10-29T04:52:34.064Z,100.0
2017-10-29T04:53:35.546Z,100.0
2017-10-29T04:54:43.201Z,100.0
2017-10-29T04:55:44.740Z,100.0
2017-10-29T04:56:46.216Z,100.0
2017-10-29T04:57:49.908Z,100.0
2017-10-29T04:58:51.449Z,100.0
2017-10-29T04:59:53.109Z,100.0
2017-10-29T05:00:54.646Z,100.0
2017-10-29T05:01:56.173Z,100.0
2017-10-29T05:02:57.735Z,100.0
2017-10-29T05:03:59.207Z,100.0
2017-10-29T05:05:00.944Z,100.0
2017-10-29T05:06:02.774Z,100.0
2017-10-29T05:07:04.590Z,100.0
2017-10-29T05:08:06.195Z,100.0
2017-10-29T05:09:09.449Z,100.0
2017-10-29T05:10:11.026Z,100.0
2017-10-29T05:11:13.686Z,100.0
2017-10-29T05:12:15.260Z,100.0
2017-10-29T05:13:16.853Z,100.0
2017-10-29T05:14:18.630Z,100.0
2017-10-29T05:15:20.191Z,100.0
2017-10-29T05:16:22.908Z,100.0
2017-10-29T05:17:24.490Z,100.0
2017-10-29T05:18:26.058Z,100.0
2017-10-29T05:19:27.710Z,100.0
2017-10-29T05:20:29.248Z,100.0
2017-10-29T05:21:30.842Z,100.0
2017-10-29T05:22:32.373Z,100.0
2017-10-29T05:23:36.060Z,100.0
2017-10-29T05:24:37.623Z,100.0
2017-10-29T05:25:39.234Z,100.0
2017-10-29T05:26:40.709Z,100.0
2017-10-29T05:27:42.387Z,100.0
2017-10-29T05:28:44.063Z,100.0
2017-10-29T05:29:45.694Z,100.0
2017-10-29T05:30:47.259Z,100.0
2017-10-29T05:31:49.090Z,100.0
2017-10-29T05:32:50.637Z,100.0
2017-10-29T05:33:52.141Z,100.0
2017-10-29T05:34:53.807Z,100.0
2017-10-29T05:35:55.355Z,100.0
2017-10-29T05:36:57.084Z,100.0
2017-10-29T05:37:58.712Z,100.0
2017-10-29T05:39:00.440Z,100.0
2017-10-29T05:40:01.937Z,100.0
2017-10-29T05:41:03.662Z,100.0
2017-10-29T05:42:05.149Z,100.0
2017-10-29T05:43:06.859Z,100.0
2017-10-29T05:44:08.376Z,100.0
2017-10-29T05:45:10.051Z,100.0
2017-10-29T05:46:11.674Z,100.0
2017-10-29T05:47:13.398Z,100.0
2017-10-29T05:48:15.003Z,100.0
2017-10-29T05:49:16.635Z,100.0
2017-10-29T05:50:18.259Z,100.0
2017-10-29T05:51:19.966Z,100.0
2017-10-29T05:52:21.531Z,100.0
2017-10-29T05:53:23.045Z,100.0
2017-10-29T05:54:24.573Z,100.0
2017-10-29T05:55:26.287Z,100.0
2017-10-29T05:56:27.817Z,100.0
2017-10-29T05:57:29.528Z,100.0
2017-10-29T05:58:31.053Z,100.0
2017-10-29T05:59:34.790Z,100.0
2017-10-29T06:00:36.253Z,100.0
2017-10-29T06:01:42.671Z,100.0
2017-10-29T06:02:44.305Z,100.0
2017-10-29T06:03:46.018Z,100.0
2017-10-29T06:04:47.530Z,100.0
2017-10-29T06:05:49.168Z,100.0
2017-10-29T06:06:50.704Z,100.0
2017-10-29T06:07:52.365Z,100.0
2017-10-29T06:08:53.889Z,100.0
2017-10-29T06:09:56.569Z,100.0
2017-10-29T06:10:58.062Z,100.0
2017-10-29T06:11:59.807Z,100.0
2017-10-29T06:13:01.316Z,100.0
2017-10-29T06:14:02.978Z,100.0
2017-10-29T06:15:04.602Z,100.0
2017-10-29T06:16:07.342Z,100.0
2017-10-29T06:17:08.908Z,100.0
2017-10-29T06:18:10.553Z,100.0
2017-10-29T06:19:12.141Z,100.0
2017-10-29T06:20:13.755Z,100.0
2017-10-29T06:21:15.453Z,100.0
2017-10-29T06:22:17.180Z,100.0
2017-10-29T06:23:18.698Z,100.0
2017-10-29T06:24:20.282Z,100.0
2017-10-29T06:25:21.810Z,100.0
2017-10-29T06:26:23.624Z,100.0
2017-10-29T06:27:25.465Z,100.0
2017-10-29T06:28:27.262Z,100.0
2017-10-29T06:29:28.786Z,100.0
2017-10-29T06:30:30.530Z,100.0
2017-10-29T06:31:32.108Z,100.0
2017-10-29T06:32:33.808Z,100.0
2017-10-29T06:33:35.340Z,100.0
2017-10-29T06:34:37.036Z,100.0
2017-10-29T06:35:38.602Z,100.0
2017-10-29T06:36:40.264Z,100.0
2017-10-29T06:37:41.810Z,100.0
2017-10-29T06:38:43.439Z,100.0
2017-10-29T06:39:44.918Z,100.0
2017-10-29T06:40:47.474Z,100.0
2017-10-29T06:41:48.952Z,100.0
2017-10-29T06:42:50.623Z,100.0
2017-10-29T06:43:52.159Z,100.0
2017-10-29T06:44:54.069Z,100.0
2017-10-29T06:45:55.610Z,100.0
2017-10-29T06:46:57.221Z,100.0
2017-10-29T06:47:58.757Z,100.0
2017-10-29T06:49:00.449Z,100.0
2017-10-29T06:50:01.982Z,100.0
2017-10-29T06:51:03.642Z,100.0
2017-10-29T06:52:05.196Z,100.0
2017-10-29T06:53:06.817Z,100.0
2017-10-29T06:54:08.363Z,100.0
2017-10-29T06:55:09.891Z,100.0
2017-10-29T06:56:11.492Z,100.0
2017-10-29T06:57:13.088Z,100.0
2017-10-29T06:58:14.644Z,100.0
2017-10-29T06:59:16.272Z,100.0
2017-10-29T07:00:17.754Z,100.0
2017-10-29T07:01:19.415Z,100.0
2017-10-29T07:02:20.890Z,100.0
2017-10-29T07:03:22.445Z,100.0
2017-10-29T07:04:23.976Z,100.0
2017-10-29T07:05:25.561Z,100.0
2017-10-29T07:06:27.555Z,100.0
2017-10-29T07:07:29.181Z,100.0
2017-10-29T07:08:30.707Z,100.0
2017-10-29T07:09:32.351Z,100.0
2017-10-29T07:10:33.839Z,100.0
2017-10-29T07:11:35.382Z,100.0
2017-10-29T07:12:37.008Z,100.0
2017-10-29T07:13:38.590Z,100.0
2017-10-29T07:14:40.087Z,100.0
2017-10-29T07:15:41.598Z,100.0
2017-10-29T07:16:43.244Z,100.0
2017-10-29T07:17:44.835Z,100.0
2017-10-29T07:18:46.390Z,100.0
2017-10-29T07:19:47.893Z,100.0
2017-10-29T07:20:49.424Z,100.0
2017-10-29T07:21:50.905Z,100.0
2017-10-29T07:22:52.542Z,100.0
2017-10-29T07:23:54.059Z,100.0
2017-10-29T07:24:55.628Z,100.0
2017-10-29T07:25:57.206Z,100.0
2017-10-29T07:26:58.830Z,100.0
2017-10-29T07:28:00.423Z,100.0
2017-10-29T07:29:02.059Z,100.0
2017-10-29T07:30:03.575Z,100.0
2017-10-29T07:31:05.201Z,100.0
2017-10-29T07:32:06.767Z,100.0
2017-10-29T07:33:08.352Z,100.0
2017-10-29T07:34:09.892Z,100.0
2017-10-29T07:35:11.542Z,100.0
2017-10-29T07:36:13.135Z,100.0
2017-10-29T07:37:14.657Z,100.0
2017-10-29T07:38:16.292Z,100.0
2017-10-29T07:39:17.918Z,100.0
2017-10-29T07:40:19.449Z,100.0
2017-10-29T07:41:20.941Z,100.0
2017-10-29T07:42:22.437Z,100.0
2017-10-29T07:43:23.974Z,100.0
2017-10-29T07:44:25.473Z,100.0
2017-10-29T07:45:26.998Z,100.0
2017-10-29T07:46:28.539Z,100.0
2017-10-29T07:47:30.073Z,100.0
2017-10-29T07:48:32.691Z,100.0
2017-10-29T07:49:34.249Z,100.0
2017-10-29T07:50:35.782Z,100.0
2017-10-29T07:51:37.353Z,100.0
2017-10-29T07:52:38.867Z,100.0
2017-10-29T07:53:40.404Z,100.0
2017-10-29T07:54:41.927Z,100.0
2017-10-29T07:55:43.518Z,100.0
2017-10-29T07:56:45.062Z,100.0
2017-10-29T07:57:46.679Z,100.0
2017-10-29T07:58:48.345Z,100.0
2017-10-29T07:59:49.842Z,100.0
2017-10-29T08:00:51.564Z,100.0
2017-10-29T08:01:53.114Z,100.0
2017-10-29T08:02:54.805Z,100.0
2017-10-29T08:03:56.318Z,100.0
2017-10-29T08:04:57.946Z,100.0
2017-10-29T08:05:59.452Z,100.0
2017-10-29T08:07:01.005Z,100.0
2017-10-29T08:08:02.652Z,100.0
2017-10-29T08:09:04.299Z,100.0
2017-10-29T08:10:05.912Z,100.0
2017-10-29T08:11:08.688Z,100.0
2017-10-29T08:12:10.204Z,100.0
2017-10-29T08:13:12.032Z,100.0
2017-10-29T08:14:13.696Z,100.0
2017-10-29T08:15:15.282Z,100.0
2017-10-29T08:16:16.816Z,100.0
2017-10-29T08:17:18.545Z,100.0
2017-10-29T08:18:20.082Z,100.0
2017-10-29T08:19:21.686Z,100.0
2017-10-29T08:20:23.170Z,100.0
2017-10-29T08:21:24.759Z,100.0
2017-10-29T08:22:26.276Z,100.0
2017-10-29T08:23:28.300Z,100.0
2017-10-29T08:24:29.924Z,100.0
2017-10-29T08:25:32.064Z,100.0
2017-10-29T08:26:34.055Z,100.0
2017-10-29T08:27:36.371Z,100.0
2017-10-29T08:28:38.438Z,100.0
2017-10-29T08:29:41.000Z,100.0
2017-10-29T08:30:42.596Z,100.0
2017-10-29T08:31:44.165Z,100.0
2017-10-29T08:32:45.662Z,100.0
2017-10-29T08:33:47.328Z,100.0
2017-10-29T08:34:48.907Z,100.0
2017-10-29T08:35:50.610Z,100.0
2017-10-29T08:36:52.228Z,100.0
2017-10-29T08:37:53.937Z,100.0
2017-10-29T08:38:55.490Z,100.0
2017-10-29T08:39:57.070Z,100.0
2017-10-29T08:40:58.672Z,100.0
2017-10-29T08:42:01.253Z,100.0
2017-10-29T08:43:02.815Z,100.0
2017-10-29T08:44:04.488Z,100.0
2017-10-29T08:45:06.038Z,100.0
2017-10-29T08:46:07.655Z,100.0
2017-10-29T08:47:09.123Z,100.0
2017-10-29T08:48:10.734Z,100.0
2017-10-29T08:49:12.303Z,100.0
2017-10-29T08:50:14.002Z,100.0
2017-10-29T08:51:15.490Z,100.0
2017-10-29T08:52:18.142Z,100.0
2017-10-29T08:53:19.683Z,100.0
2017-10-29T08:54:21.306Z,100.0
2017-10-29T08:55:23.216Z,100.0
2017-10-29T08:56:24.801Z,100.0
2017-10-29T08:57:26.368Z,100.0
2017-10-29T08:58:27.974Z,100.0
2017-10-29T08:59:29.498Z,100.0
2017-10-29T09:00:32.095Z,100.0
2017-10-29T09:01:33.655Z,100.0
2017-10-29T09:02:35.308Z,100.0
2017-10-29T09:03:36.867Z,100.0
2017-10-29T09:04:38.578Z,100.0
2017-10-29T09:05:40.649Z,99.9
2017-10-29T09:06:42.353Z,100.0
2017-10-29T09:07:43.899Z,100.0
2017-10-29T09:08:45.430Z,100.0
2017-10-29T09:09:47.149Z,100.0
2017-10-29T09:10:48.769Z,100.0
2017-10-29T09:11:50.456Z,100.0
2017-10-29T09:12:52.054Z,100.0
2017-10-29T09:13:53.578Z,100.0
2017-10-29T09:14:55.105Z,99.9
2017-10-29T09:15:56.661Z,99.5
2017-10-29T09:16:58.323Z,100.0
2017-10-29T09:18:00.152Z,100.0
2017-10-29T09:19:01.776Z,100.0
2017-10-29T09:20:03.325Z,100.0
2017-10-29T09:21:09.936Z,100.0
2017-10-29T09:22:11.470Z,100.0
2017-10-29T09:23:13.429Z,100.0
2017-10-29T09:24:14.987Z,100.0
2017-10-29T09:25:17.148Z,100.0
2017-10-29T09:26:18.773Z,100.0
2017-10-29T09:27:20.416Z,100.0
2017-10-29T09:28:22.527Z,99.2
2017-10-29T09:29:24.153Z,100.0
2017-10-29T09:30:26.127Z,100.0
2017-10-29T09:31:27.678Z,100.0
2017-10-29T09:32:29.628Z,100.0
2017-10-29T09:33:31.172Z,100.0
2017-10-29T09:34:33.286Z,99.8
2017-10-29T09:35:35.313Z,98.2
2017-10-29T09:36:36.893Z,99.0
2017-10-29T09:37:39.025Z,98.1
2017-10-29T09:38:40.625Z,96.0
2017-10-29T09:39:42.425Z,95.6
2017-10-29T09:40:43.977Z,96.0
2017-10-29T09:41:45.928Z,96.8
2017-10-29T09:42:47.509Z,93.7
2017-10-29T09:43:50.526Z,93.5
2017-10-29T09:44:52.032Z,93.7
2017-10-29T09:45:54.285Z,92.1
2017-10-29T09:46:55.952Z,92.3
2017-10-29T09:47:57.507Z,92.4
2017-10-29T09:48:59.047Z,94.0
2017-10-29T09:50:00.864Z,93.7
2017-10-29T09:51:03.384Z,92.7
2017-10-29T09:52:05.038Z,93.3
2017-10-29T09:53:07.504Z,93.3
2017-10-29T09:54:10.404Z,95.2
2017-10-29T09:55:12.847Z,95.1
2017-10-29T09:56:15.490Z,94.4
2017-10-29T09:57:17.373Z,93.0
2017-10-29T09:58:18.859Z,91.5
2017-10-29T09:59:21.295Z,92.5
2017-10-29T10:00:26.036Z,92.5
2017-10-29T10:01:27.988Z,89.9
2017-10-29T10:02:30.136Z,90.1
2017-10-29T10:03:32.596Z,87.5
2017-10-29T10:04:35.602Z,88.5
2017-10-29T10:05:38.193Z,89.3
2017-10-29T10:06:40.267Z,89.3
2017-10-29T10:07:41.870Z,89.5
2017-10-29T10:08:43.567Z,88.4
2017-10-29T10:09:45.190Z,88.2
2017-10-29T10:10:47.932Z,87.9
2017-10-29T10:11:50.475Z,88.3
2017-10-29T10:12:52.201Z,87.1
2017-10-29T10:13:53.819Z,85.6
2017-10-29T10:14:55.756Z,85.2
2017-10-29T10:15:57.624Z,86.1
2017-10-29T10:16:59.220Z,87.7
2017-10-29T10:18:00.879Z,85.2
2017-10-29T10:19:02.479Z,84.6
2017-10-29T10:20:05.657Z,85.1
2017-10-29T10:21:07.256Z,87.1
2017-10-29T10:22:08.822Z,85.1
2017-10-29T10:23:10.372Z,84.1
2017-10-29T10:24:11.928Z,83.5
2017-10-29T10:25:14.479Z,83.3
2017-10-29T10:26:16.037Z,85.4
2017-10-29T10:27:17.585Z,83.7
2017-10-29T10:28:19.155Z,79.4
2017-10-29T10:29:20.800Z,77.6
2017-10-29T10:30:22.392Z,76.2
2017-10-29T10:31:23.972Z,74.7
2017-10-29T10:32:25.586Z,76.1
2017-10-29T10:33:28.163Z,76.2
2017-10-29T10:34:29.729Z,75.8
2017-10-29T10:35:31.291Z,74.0
2017-10-29T10:36:32.906Z,75.5
2017-10-29T10:37:34.798Z,74.7
2017-10-29T10:38:36.611Z,75.2
2017-10-29T10:39:38.286Z,75.3
2017-10-29T10:40:39.923Z,75.0
2017-10-29T10:41:41.482Z,74.4
2017-10-29T10:42:44.076Z,73.7
2017-10-29T10:43:45.719Z,72.4
2017-10-29T10:44:47.283Z,70.9
2017-10-29T10:45:48.894Z,70.4
2017-10-29T10:46:50.558Z,70.0
2017-10-29T10:47:52.143Z,70.1
2017-10-29T10:48:54.012Z,68.7
2017-10-29T10:49:55.799Z,68.5
2017-10-29T10:50:58.050Z,67.6
2017-10-29T10:51:59.687Z,69.1
2017-10-29T10:53:01.364Z,68.5
2017-10-29T10:54:02.969Z,67.0
2017-10-29T10:55:04.655Z,65.2
2017-10-29T10:56:06.536Z,64.0
2017-10-29T10:57:08.313Z,64.6
2017-10-29T10:58:09.903Z,65.2
2017-10-29T10:59:11.545Z,65.0
2017-10-29T11:00:13.150Z,63.9
2017-10-29T11:01:14.976Z,65.4
2017-10-29T11:02:16.578Z,63.8
2017-10-29T11:03:18.222Z,64.9
2017-10-29T11:04:20.869Z,64.6
2017-10-29T11:05:22.505Z,64.6
2017-10-29T11:06:25.145Z,64.5
2017-10-29T11:07:29.145Z,64.6
2017-10-29T11:08:31.742Z,63.9
2017-10-29T11:09:34.166Z,65.5
2017-10-29T11:10:35.916Z,64.1
2017-10-29T11:11:37.735Z,63.3
2017-10-29T11:12:39.375Z,63.2
2017-10-29T11:13:41.020Z,62.7
2017-10-29T11:14:43.507Z,61.6
2017-10-29T11:15:45.190Z,63.3
2017-10-29T11:16:46.893Z,63.5
2017-10-29T11:17:49.197Z,63.5
2017-10-29T11:18:51.005Z,61.6
2017-10-29T11:19:53.567Z,63.6
2017-10-29T11:20:54.576Z,62.3
2017-10-29T11:21:56.136Z,62.0
2017-10-29T11:22:57.847Z,61.5
2017-10-29T11:23:59.539Z,62.5
2017-10-29T11:25:01.166Z,62.6
2017-10-29T11:26:02.808Z,61.6
2017-10-29T11:27:05.662Z,62.0
2017-10-29T11:28:07.137Z,62.1
2017-10-29T11:29:08.923Z,61.4
2017-10-29T11:30:10.597Z,62.1
2017-10-29T11:31:12.204Z,61.7
2017-10-29T11:32:13.823Z,62.3
2017-10-29T11:33:17.569Z,61.4
2017-10-29T11:34:19.967Z,62.7
2017-10-29T11:35:22.180Z,61.1
2017-10-29T11:36:23.797Z,61.2
2017-10-29T11:37:25.478Z,61.6
2017-10-29T11:38:27.173Z,62.2
2017-10-29T11:39:28.833Z,62.2
2017-10-29T11:40:31.067Z,63.3
2017-10-29T11:41:32.801Z,61.7
2017-10-29T11:42:34.471Z,62.0
2017-10-29T11:43:36.098Z,61.4
2017-10-29T11:44:40.065Z,61.6
2017-10-29T11:45:41.051Z,61.6
2017-10-29T11:46:42.706Z,60.8
2017-10-29T11:47:44.330Z,61.0
2017-10-29T11:48:45.909Z,60.9
2017-10-29T11:49:47.541Z,61.5
2017-10-29T11:50:49.173Z,61.8
2017-10-29T11:51:50.765Z,61.4
2017-10-29T11:52:53.405Z,60.8
2017-10-29T11:53:55.093Z,61.1
2017-10-29T11:54:56.746Z,60.8
2017-10-29T11:55:59.380Z,60.5
2017-10-29T11:57:01.830Z,59.6
2017-10-29T11:58:03.559Z,59.4
2017-10-29T11:59:05.147Z,59.5
2017-10-29T12:00:08.222Z,57.2
2017-10-29T12:01:09.943Z,57.4
2017-10-29T12:02:11.619Z,59.8
2017-10-29T12:03:13.437Z,58.4
2017-10-29T12:04:15.120Z,58.5
2017-10-29T12:05:16.725Z,58.4
2017-10-29T12:06:18.926Z,57.6
2017-10-29T12:07:20.675Z,57.5
2017-10-29T12:08:22.253Z,57.0
2017-10-29T12:09:24.974Z,57.3
2017-10-29T12:10:26.629Z,57.1
2017-10-29T12:11:28.313Z,57.8
2017-10-29T12:12:30.975Z,58.1
2017-10-29T12:13:32.685Z,57.6
2017-10-29T12:14:34.331Z,58.9
2017-10-29T12:15:36.146Z,57.9
2017-10-29T12:16:38.371Z,58.0
2017-10-29T12:17:41.010Z,59.1
2017-10-29T12:18:42.723Z,59.0
2017-10-29T12:19:44.531Z,57.5
2017-10-29T12:20:46.190Z,56.8
2017-10-29T12:21:48.063Z,56.3
2017-10-29T12:22:49.652Z,56.8
2017-10-29T12:23:51.358Z,58.0
2017-10-29T12:24:53.147Z,58.6
2017-10-29T12:25:55.674Z,58.3
2017-10-29T12:26:59.082Z,57.7
2017-10-29T12:28:01.766Z,58.4
2017-10-29T12:29:03.375Z,59.1
2017-10-29T12:30:05.485Z,58.6
2017-10-29T12:31:07.210Z,56.9
2017-10-29T12:32:09.689Z,57.2
2017-10-29T12:33:11.264Z,57.4
2017-10-29T12:34:12.915Z,58.4
2017-10-29T12:35:15.179Z,56.5
2017-10-29T12:36:17.442Z,56.8
2017-10-29T12:37:19.081Z,57.2
2017-10-29T12:38:20.636Z,58.1
2017-10-29T12:39:22.236Z,58.4
2017-10-29T12:40:23.908Z,59.1
2017-10-29T12:41:26.356Z,57.9
2017-10-29T12:42:27.956Z,58.0
2017-10-29T12:43:29.637Z,58.8
2017-10-29T12:44:31.894Z,59.4
2017-10-29T12:45:35.093Z,58.4
2017-10-29T12:46:36.741Z,57.4
2017-10-29T12:47:38.451Z,58.6
2017-10-29T12:48:40.114Z,57.9
2017-10-29T12:49:42.686Z,57.5
2017-10-29T12:50:45.812Z,57.3
2017-10-29T12:51:47.508Z,57.6
2017-10-29T12:52:49.169Z,57.1
2017-10-29T12:53:52.093Z,57.2
2017-10-29T12:54:53.875Z,57.6
2017-10-29T12:55:56.019Z,57.6
2017-10-29T12:56:57.716Z,58.0
2017-10-29T12:58:00.869Z,59.2
2017-10-29T12:59:03.444Z,59.1
2017-10-29T13:00:05.793Z,60.3
2017-10-29T13:01:07.345Z,60.6
2017-10-29T13:02:08.858Z,61.1
2017-10-29T13:03:10.502Z,61.8
2017-10-29T13:04:12.093Z,61.6
2017-10-29T13:05:13.728Z,62.0
2017-10-29T13:06:15.405Z,63.3
2017-10-29T13:07:17.119Z,62.9
2017-10-29T13:08:18.716Z,63.3
2017-10-29T13:09:21.076Z,63.2
2017-10-29T13:10:22.895Z,63.2
2017-10-29T13:11:24.494Z,63.3
2017-10-29T13:12:26.082Z,62.3
2017-10-29T13:13:28.812Z,62.5
2017-10-29T13:14:30.632Z,62.3
2017-10-29T13:15:32.359Z,63.4
2017-10-29T13:16:33.971Z,63.3
2017-10-29T13:17:36.438Z,63.4
2017-10-29T13:18:37.980Z,62.5
2017-10-29T13:19:39.657Z,62.1
2017-10-29T13:20:41.924Z,62.0
2017-10-29T13:21:45.002Z,63.2
2017-10-29T13:22:46.649Z,62.0
2017-10-29T13:23:48.353Z,61.5